LESA/SLM METAR and TAF weather

Enter ICAO airport designator
Station Type Date Time Source
LESA METAR 2021/05/14 22:30 UTC NOAA

LESA 142230Z AUTO 24007KT 9999 ////// 12/09 Q1019


Station Type Date Time Source
LESA Decoded METAR 2021/05/14 22:30 UTC NOAA

Salamanca / Matacan, Spain (LESA) 40-57N 005-30W 795M
May 14, 2021 - 06:30 PM EDT / 2021.05.14 2230 UTC
Wind: from the WSW (240 degrees) at 8 MPH (7 KT):0
Visibility: greater than 7 mile(s):0
Temperature: 53 F (12 C)
Dew Point: 48 F (9 C)
Relative Humidity: 81%
Pressure (altimeter): 30.09 in. Hg (1019 hPa)
ob: LESA 142230Z AUTO 24007KT 9999 ////// 12/09 Q1019
cycle: 22

Station Type Date Time Source
LESA TAF 2021/05/14 21:27 UTC NOAA

TAF LESA 142000Z 1421/1521 28010KT 9999 FEW025 TX25/1515Z TN08/1505Z
TEMPO 1500/1509 24007KT PROB30
TEMPO 1504/1506 2000 BR BKN005 PROB40
TEMPO 1510/1521 27015G25KT

Example: see airport list